Time;durP1;ratioP1;P1;durP2;ratioP2;P2;SDS_P1;SDS_P2;PMS_P1;PMS_P2;Temp;Humidity;BMP_temperature;BMP_pressure;BME280_temperature;BME280_humidity;BME280_pressure;Samples;Min_cycle;Max_cycle;Signal;HPM_P1;HPM_P2
2023/07/13 05:14:03;;;;;;;4.60;1.80;;;18.20;99.90;;;;;;4914727;29;20418;-72
2023/07/13 05:23:13;;;;;;;2.63;2.37;;;18.10;99.90;;;;;;4910766;29;20453;-72
2023/07/13 05:52:52;;;;;;;2.83;2.43;;;18.50;99.90;;;;;;4897666;29;20415;-73
2023/07/13 07:47:01;;;;;;;10.00;4.33;;;22.90;97.40;;;;;;2945284;23;20493;-88
2023/07/13 11:19:32;;;;;;;2.10;2.00;;;28.30;62.70;;;;;;4907476;29;20475;-88
2023/07/13 11:28:50;;;;;;;3.17;2.50;;;27.50;60.10;;;;;;4853295;29;20472;-89
2023/07/13 11:51:12;;;;;;;2.07;1.90;;;30.10;54.70;;;;;;4892790;29;20486;-89
2023/07/13 11:53:49;;;;;;;3.50;2.17;;;30.60;53.00;;;;;;4912999;29;20584;-92
2023/07/13 11:56:18;;;;;;;2.17;2.07;;;31.10;52.00;;;;;;4875306;29;20449;-89
2023/07/13 11:58:44;;;;;;;4.90;2.73;;;31.30;51.00;;;;;;4884650;29;21048;-83
2023/07/13 12:01:21;;;;;;;3.47;2.30;;;31.10;50.30;;;;;;4878276;29;20477;-82
2023/07/13 12:03:48;;;;;;;2.43;2.07;;;32.00;50.60;;;;;;4896989;29;20432;-83
2023/07/13 12:06:39;;;;;;;2.07;1.97;;;31.80;50.20;;;;;;4897091;29;20454;-88
2023/07/13 12:09:13;;;;;;;2.57;2.47;;;32.10;50.20;;;;;;4875709;29;20433;-90
2023/07/13 12:11:46;;;;;;;2.30;2.20;;;32.40;49.70;;;;;;4907744;29;20495;-88
2023/07/13 12:14:16;;;;;;;2.30;2.20;;;32.20;48.70;;;;;;4888632;29;20444;-90
2023/07/13 12:16:42;;;;;;;3.10;2.90;;;31.70;48.00;;;;;;4897633;29;20542;-86
2023/07/13 12:19:40;;;;;;;5.53;2.70;;;30.70;49.00;;;;;;4900969;29;20455;-92
2023/07/13 12:22:11;;;;;;;2.57;2.47;;;30.00;49.80;;;;;;4902985;29;20447;-89
2023/07/13 12:28:43;;;;;;;2.43;2.20;;;28.90;51.10;;;;;;4917703;29;20415;-88
2023/07/13 12:41:13;;;;;;;3.23;2.93;;;26.40;54.50;;;;;;4878837;29;20493;-88
2023/07/13 12:43:39;;;;;;;1.87;1.73;;;26.80;54.30;;;;;;4887524;29;21172;-85
2023/07/13 12:46:22;;;;;;;1.80;1.70;;;27.60;53.70;;;;;;4864279;29;20466;-87
2023/07/13 12:48:54;;;;;;;2.30;2.30;;;27.40;52.40;;;;;;4892356;29;20219;-86
2023/07/13 12:51:24;;;;;;;1.80;1.70;;;27.90;50.60;;;;;;4883150;29;20425;-87
2023/07/13 12:53:56;;;;;;;1.93;1.90;;;28.10;51.10;;;;;;4882664;29;20430;-88
2023/07/13 12:56:27;;;;;;;3.97;2.37;;;28.60;51.50;;;;;;4890463;29;20489;-88
2023/07/13 12:59:01;;;;;;;1.87;1.60;;;28.70;50.90;;;;;;4876329;29;20810;-86
2023/07/13 13:25:02;;;;;;;1.93;1.83;;;24.30;58.40;;;;;;4887698;29;20459;-87
2023/07/13 13:27:28;;;;;;;1.70;1.60;;;24.20;58.30;;;;;;4869324;29;20520;-85
2023/07/13 13:30:00;;;;;;;2.70;2.50;;;24.30;58.70;;;;;;4889291;29;20204;-86
2023/07/13 13:32:25;;;;;;;3.27;2.10;;;24.70;58.90;;;;;;4866557;29;20205;-89
2023/07/13 13:34:51;;;;;;;1.80;1.70;;;25.40;58.50;;;;;;4864381;29;20463;-88
2023/07/13 13:37:22;;;;;;;2.23;2.10;;;26.00;56.70;;;;;;4888193;29;20481;-87
2023/07/13 13:39:50;;;;;;;10.43;2.77;;;26.50;56.40;;;;;;4873868;29;20252;-87
2023/07/13 13:42:16;;;;;;;2.47;2.37;;;27.30;54.40;;;;;;4884349;29;20466;-87
2023/07/13 13:44:41;;;;;;;2.50;2.30;;;27.50;54.40;;;;;;4883851;29;20526;-87
2023/07/13 13:47:39;;;;;;;3.00;2.77;;;28.60;54.00;;;;;;4876110;29;20193;-87
2023/07/13 13:50:17;;;;;;;2.70;2.50;;;29.50;52.30;;;;;;4868461;29;20678;-87
2023/07/13 13:52:43;;;;;;;2.50;2.40;;;29.20;52.20;;;;;;4884890;29;20481;-86
2023/07/13 13:55:20;;;;;;;3.17;2.97;;;28.90;52.50;;;;;;4877686;29;20465;-85
2023/07/13 13:57:46;;;;;;;3.00;2.80;;;28.50;52.90;;;;;;4867171;29;20457;-86
2023/07/13 14:00:14;;;;;;;3.00;2.67;;;28.00;52.60;;;;;;4882096;29;20446;-87
2023/07/13 14:19:43;;;;;;;2.27;2.27;;;25.10;61.40;;;;;;4888331;29;20466;-87
2023/07/13 14:22:11;;;;;;;2.60;2.40;;;25.40;60.30;;;;;;4879774;29;20440;-88
2023/07/13 14:24:37;;;;;;;1.97;1.87;;;25.60;59.90;;;;;;4883224;29;20429;-90
2023/07/13 14:27:03;;;;;;;3.57;2.10;;;26.40;59.60;;;;;;4877048;29;20576;-87
2023/07/13 14:29:32;;;;;;;1.90;1.80;;;27.50;58.00;;;;;;4871220;29;20182;-87
2023/07/13 14:31:57;;;;;;;3.77;2.53;;;28.50;56.10;;;;;;4885993;29;20469;-87
2023/07/13 14:34:23;;;;;;;2.10;2.10;;;28.90;53.90;;;;;;4870698;29;20559;-86
2023/07/13 14:36:50;;;;;;;2.83;2.63;;;28.90;52.80;;;;;;4870775;29;20355;-87
2023/07/13 14:39:23;;;;;;;4.73;3.07;;;28.60;55.40;;;;;;4849348;29;20213;-89
2023/07/13 14:41:56;;;;;;;3.03;2.93;;;28.50;57.00;;;;;;4859864;29;20853;-85
2023/07/13 14:44:28;;;;;;;3.77;3.47;;;28.10;57.40;;;;;;4867474;29;20519;-87
2023/07/13 14:46:56;;;;;;;4.30;4.10;;;27.80;58.00;;;;;;4864650;29;20457;-88
2023/07/13 14:49:36;;;;;;;3.73;3.63;;;27.70;59.00;;;;;;4871186;29;20455;-87
2023/07/13 14:52:18;;;;;;;4.10;3.83;;;27.30;59.60;;;;;;4864240;29;20453;-86
2023/07/13 14:54:50;;;;;;;3.50;3.30;;;27.30;60.90;;;;;;4860068;29;20453;-85
2023/07/13 15:14:06;;;;;;;3.90;3.60;;;26.30;67.40;;;;;;4872319;29;20453;-85
2023/07/13 15:16:31;;;;;;;4.53;4.13;;;26.00;68.60;;;;;;4879235;29;20460;-85
2023/07/13 15:18:58;;;;;;;4.30;4.00;;;25.80;71.10;;;;;;4859960;29;20289;-84
2023/07/13 15:21:34;;;;;;;3.60;3.40;;;25.40;71.20;;;;;;4879996;29;20244;-84
2023/07/13 15:24:00;;;;;;;5.20;4.20;;;25.40;72.90;;;;;;4866136;29;20484;-86
2023/07/13 15:26:26;;;;;;;4.27;3.97;;;25.20;74.40;;;;;;4860750;29;20449;-85
2023/07/13 15:28:52;;;;;;;4.33;3.43;;;24.90;75.70;;;;;;4875550;29;20454;-87
2023/07/13 15:31:22;;;;;;;7.10;4.37;;;24.70;88.40;;;;;;4866200;29;20926;-88
2023/07/13 15:33:50;;;;;;;5.30;4.83;;;24.10;93.40;;;;;;4859622;29;20455;-88
2023/07/13 15:36:17;;;;;;;4.10;3.90;;;23.50;99.90;;;;;;4876958;29;20487;-88
2023/07/13 15:38:45;;;;;;;4.20;3.90;;;23.20;99.90;;;;;;4879757;29;20468;-89
2023/07/13 15:41:24;;;;;;;4.43;4.07;;;22.60;99.90;;;;;;4868362;29;20426;-86
2023/07/13 15:43:55;;;;;;;3.57;3.37;;;22.00;99.90;;;;;;4864064;29;20447;-91
2023/07/13 15:46:22;;;;;;;3.90;3.77;;;21.30;99.90;;;;;;4877984;29;20493;-90
2023/07/13 15:48:53;;;;;;;4.00;3.90;;;21.20;99.90;;;;;;4872748;29;20986;-85
2023/07/13 15:51:30;;;;;;;5.37;4.03;;;21.10;99.90;;;;;;4859342;29;20429;-86
2023/07/13 15:53:59;;;;;;;4.63;4.03;;;21.10;99.90;;;;;;4880346;29;20436;-89
2023/07/13 15:56:37;;;;;;;4.80;4.43;;;21.10;99.90;;;;;;4866388;29;20477;-88
2023/07/13 16:05:50;;;;;;;6.37;4.23;;;21.60;99.90;;;;;;4881439;29;20452;-84
2023/07/13 16:08:32;;;;;;;3.60;3.30;;;21.70;99.90;;;;;;4896704;29;20453;-86
2023/07/13 16:11:00;;;;;;;2.90;2.70;;;21.70;99.90;;;;;;4863683;29;20458;-85
2023/07/13 16:13:26;;;;;;;4.07;3.27;;;21.90;99.90;;;;;;4871400;29;20433;-86
2023/07/13 16:15:56;;;;;;;2.73;2.53;;;21.80;99.90;;;;;;4880971;29;21004;-86
2023/07/13 16:18:21;;;;;;;2.90;2.80;;;21.80;99.90;;;;;;4865118;29;20978;-86
2023/07/13 16:20:48;;;;;;;3.60;3.20;;;21.70;99.90;;;;;;4864091;29;20418;-88
2023/07/13 16:23:15;;;;;;;2.60;2.60;;;21.60;99.90;;;;;;4855001;29;20217;-87
2023/07/13 16:25:41;;;;;;;4.50;4.20;;;21.70;99.90;;;;;;4876763;29;20442;-86
2023/07/13 16:28:10;;;;;;;3.10;2.90;;;21.70;99.90;;;;;;4860910;29;21155;-86
2023/07/13 16:30:36;;;;;;;2.90;2.80;;;21.70;99.90;;;;;;4858401;29;20450;-86
2023/07/13 16:33:06;;;;;;;6.23;3.70;;;21.60;99.90;;;;;;4881001;29;20444;-86
2023/07/13 16:35:35;;;;;;;3.90;3.80;;;21.70;99.90;;;;;;4851687;29;20474;-87
2023/07/13 16:38:03;;;;;;;3.37;3.10;;;21.70;99.90;;;;;;4874927;29;20525;-89
2023/07/13 16:40:34;;;;;;;8.77;6.40;;;21.70;99.90;;;;;;4879501;29;20442;-86
2023/07/13 16:43:04;;;;;;;3.60;3.40;;;21.70;99.90;;;;;;4878456;29;20509;-86
2023/07/13 16:45:33;;;;;;;4.27;3.50;;;21.80;99.90;;;;;;4875426;29;20438;-87
2023/07/13 16:48:01;;;;;;;4.27;4.07;;;22.00;99.90;;;;;;4864253;29;20518;-84
2023/07/13 16:50:31;;;;;;;3.93;3.80;;;22.10;99.90;;;;;;4866813;29;20437;-83
2023/07/13 16:52:58;;;;;;;4.27;4.07;;;22.10;99.90;;;;;;4855606;29;20445;-84
2023/07/13 16:55:28;;;;;;;4.63;4.33;;;22.00;99.90;;;;;;4875587;29;20484;-85
2023/07/13 16:58:05;;;;;;;4.07;3.77;;;22.00;99.90;;;;;;4860162;29;20437;-85
2023/07/13 17:00:33;;;;;;;3.93;3.73;;;22.10;99.90;;;;;;4858335;29;20453;-86
2023/07/13 17:03:02;;;;;;;4.23;4.13;;;22.00;99.90;;;;;;4878542;29;21042;-85
2023/07/13 17:05:45;;;;;;;4.10;3.90;;;22.10;99.90;;;;;;4862069;29;20978;-85
2023/07/13 17:08:32;;;;;;;4.37;4.07;;;22.00;99.90;;;;;;4876737;29;20422;-86
2023/07/13 17:10:59;;;;;;;12.23;9.13;;;22.10;99.90;;;;;;4871340;29;20454;-86
2023/07/13 17:13:27;;;;;;;9.60;7.80;;;22.00;99.90;;;;;;4867006;29;21327;-86
2023/07/13 17:15:57;;;;;;;7.43;6.73;;;21.90;99.90;;;;;;4881920;29;20472;-86
2023/07/13 17:18:27;;;;;;;5.73;5.30;;;21.90;99.90;;;;;;4890178;29;20476;-87
2023/07/13 17:20:54;;;;;;;5.60;5.20;;;21.80;99.90;;;;;;4886935;29;21023;-85
2023/07/13 17:23:25;;;;;;;5.90;5.50;;;21.80;99.90;;;;;;4872441;29;20450;-85
2023/07/13 17:45:33;;;;;;;5.80;5.50;;;21.20;99.90;;;;;;4858401;29;20489;-84
2023/07/13 17:48:05;;;;;;;6.43;5.93;;;21.30;99.90;;;;;;4851919;29;20660;-85
2023/07/13 17:50:36;;;;;;;8.70;8.00;;;21.30;99.90;;;;;;4856173;29;20755;-85
2023/07/13 17:53:05;;;;;;;4.47;4.27;;;21.30;99.90;;;;;;4841003;29;20447;-87
2023/07/13 17:55:32;;;;;;;4.73;3.40;;;21.30;99.90;;;;;;4847301;29;20474;-85
2023/07/13 17:57:57;;;;;;;3.10;2.93;;;21.40;99.90;;;;;;4862758;29;20454;-85
2023/07/13 18:00:31;;;;;;;3.20;3.00;;;21.40;99.90;;;;;;4868052;29;20441;-83
2023/07/13 18:09:56;;;;;;;3.00;2.90;;;21.80;99.90;;;;;;4864124;29;20586;-85
2023/07/13 18:50:14;;;;;;;4.43;4.13;;;20.40;99.90;;;;;;4874556;29;20440;-85
2023/07/13 18:59:50;;;;;;;4.37;4.17;;;20.20;99.90;;;;;;4880632;29;20421;-85
2023/07/13 19:02:18;;;;;;;4.77;4.60;;;20.10;99.90;;;;;;4880857;29;20434;-85
2023/07/13 19:04:44;;;;;;;4.20;3.93;;;20.00;99.90;;;;;;4885442;29;20644;-86
2023/07/13 19:07:12;;;;;;;4.00;3.90;;;20.00;99.90;;;;;;4881029;29;20449;-86
2023/07/13 19:09:40;;;;;;;5.47;5.07;;;20.00;99.90;;;;;;4881727;29;20272;-86
2023/07/13 19:12:20;;;;;;;5.43;5.03;;;19.90;99.90;;;;;;4878378;29;20422;-86
2023/07/13 19:14:49;;;;;;;5.50;5.13;;;19.80;99.90;;;;;;4851547;29;20469;-85
2023/07/13 19:17:15;;;;;;;3.80;3.60;;;19.70;99.90;;;;;;4884155;29;20843;-89
2023/07/13 19:19:40;;;;;;;4.00;3.80;;;19.70;99.90;;;;;;4873173;29;20454;-85
2023/07/13 19:22:11;;;;;;;3.63;3.43;;;19.70;99.90;;;;;;4864885;29;20173;-86
2023/07/13 19:24:37;;;;;;;4.63;4.20;;;19.70;99.90;;;;;;4876985;29;20185;-87
2023/07/13 19:27:03;;;;;;;4.17;3.90;;;19.60;99.90;;;;;;4878434;29;20436;-89
2023/07/13 19:29:30;;;;;;;3.80;3.57;;;19.60;99.90;;;;;;4874258;29;20464;-86
2023/07/13 19:31:55;;;;;;;4.03;3.90;;;19.70;99.90;;;;;;4884382;29;20460;-86
2023/07/13 19:34:26;;;;;;;3.73;3.63;;;19.70;99.90;;;;;;4884046;29;20915;-86
2023/07/13 19:37:04;;;;;;;4.37;4.10;;;19.60;99.90;;;;;;4876960;29;20416;-86
2023/07/13 19:39:40;;;;;;;3.87;3.67;;;19.40;99.90;;;;;;4884345;29;20455;-86
2023/07/13 19:42:17;;;;;;;3.27;3.27;;;19.40;99.90;;;;;;4883532;29;20460;-84
2023/07/13 19:44:43;;;;;;;3.90;3.90;;;19.40;99.90;;;;;;4869178;29;20465;-85
2023/07/13 19:47:19;;;;;;;4.97;4.60;;;19.30;99.90;;;;;;4859772;29;20541;-86
2023/07/13 19:49:45;;;;;;;4.90;4.60;;;19.20;99.90;;;;;;4875372;29;20610;-85
2023/07/13 19:52:17;;;;;;;4.07;3.97;;;19.10;99.90;;;;;;4878215;29;20469;-88
2023/07/13 19:54:43;;;;;;;4.80;4.50;;;18.90;99.90;;;;;;4877909;29;20513;-86
2023/07/13 19:57:17;;;;;;;3.63;3.53;;;18.90;99.90;;;;;;4876734;29;20470;-86
2023/07/13 19:59:45;;;;;;;6.13;5.80;;;18.90;99.90;;;;;;4876889;29;20964;-83
2023/07/13 20:02:11;;;;;;;3.77;3.67;;;18.80;99.90;;;;;;4862287;29;20519;-85
2023/07/13 20:04:37;;;;;;;3.57;3.37;;;18.80;99.90;;;;;;4855811;29;20449;-83
2023/07/13 20:07:03;;;;;;;4.43;4.13;;;18.80;99.90;;;;;;4879029;29;20749;-84
2023/07/13 20:09:34;;;;;;;3.27;3.17;;;18.70;99.90;;;;;;4879435;29;20195;-85
2023/07/13 20:12:00;;;;;;;5.13;3.30;;;18.70;99.90;;;;;;4881376;29;21040;-84
2023/07/13 20:14:27;;;;;;;3.77;3.57;;;18.70;99.90;;;;;;4861062;29;20445;-83
2023/07/13 20:17:02;;;;;;;4.23;4.03;;;18.50;99.90;;;;;;4854830;29;20565;-84
2023/07/13 20:19:32;;;;;;;4.10;3.80;;;18.60;99.90;;;;;;4859529;29;20476;-84
2023/07/13 20:21:57;;;;;;;4.40;4.10;;;18.60;99.90;;;;;;4858749;29;20446;-83
2023/07/13 20:24:23;;;;;;;4.23;3.87;;;18.50;99.90;;;;;;4870926;29;20517;-85
2023/07/13 20:26:49;;;;;;;7.33;7.13;;;18.40;99.90;;;;;;4860765;29;20208;-85
2023/07/13 20:56:18;;;;;;;3.77;3.50;;;18.30;99.90;;;;;;4871964;29;20427;-86
2023/07/13 20:58:47;;;;;;;4.13;3.83;;;18.30;99.90;;;;;;4860318;29;20499;-87
2023/07/13 21:01:21;;;;;;;4.30;4.00;;;18.20;99.90;;;;;;4856458;29;20488;-86
2023/07/13 21:03:48;;;;;;;4.23;4.03;;;18.20;99.90;;;;;;4858069;29;20449;-86
2023/07/13 21:06:18;;;;;;;4.20;3.90;;;18.20;99.90;;;;;;4848834;29;20481;-86
2023/07/13 21:08:45;;;;;;;4.30;4.10;;;18.20;99.90;;;;;;4871208;29;20545;-86
2023/07/13 21:11:11;;;;;;;3.60;3.23;;;18.30;99.90;;;;;;4841524;29;20632;-86
2023/07/13 21:13:36;;;;;;;3.30;3.30;;;18.30;99.90;;;;;;4865519;29;20453;-86
2023/07/13 21:16:29;;;;;;;4.43;3.93;;;18.30;99.90;;;;;;4871924;29;20860;-86
2023/07/13 21:18:55;;;;;;;4.13;3.83;;;18.20;99.90;;;;;;4870364;29;20204;-86
2023/07/13 21:21:23;;;;;;;4.00;3.80;;;18.20;99.90;;;;;;4857269;29;20452;-86
2023/07/13 21:23:51;;;;;;;3.87;3.67;;;18.20;99.90;;;;;;4857425;29;20257;-86
2023/07/13 21:26:17;;;;;;;4.73;4.43;;;18.30;99.90;;;;;;4857680;29;20878;-87
2023/07/13 21:28:45;;;;;;;4.23;3.87;;;18.20;99.90;;;;;;4870328;29;20449;-86
2023/07/13 21:31:33;;;;;;;3.97;3.87;;;18.20;99.90;;;;;;4858134;29;20453;-86
2023/07/13 21:34:03;;;;;;;4.63;4.43;;;18.20;99.90;;;;;;4870392;29;20441;-85
2023/07/13 21:36:29;;;;;;;4.90;4.70;;;18.10;99.90;;;;;;4853340;29;20445;-87
2023/07/13 21:39:06;;;;;;;4.47;4.33;;;18.00;99.90;;;;;;4878337;29;20459;-87
2023/07/13 21:41:34;;;;;;;4.33;4.13;;;17.80;99.90;;;;;;4870980;29;20441;-87
2023/07/13 21:44:01;;;;;;;7.73;4.63;;;17.80;99.90;;;;;;4852880;29;20421;-87
2023/07/13 21:46:28;;;;;;;4.40;4.30;;;17.80;99.90;;;;;;4870264;29;20493;-87
2023/07/13 21:48:55;;;;;;;4.00;3.90;;;17.80;99.90;;;;;;4868043;29;20497;-85
2023/07/13 21:51:23;;;;;;;4.33;3.80;;;17.80;99.90;;;;;;4850448;29;20462;-87
2023/07/13 21:53:50;;;;;;;4.30;4.20;;;17.80;99.90;;;;;;4856278;29;20534;-86
2023/07/13 21:56:21;;;;;;;4.57;4.30;;;17.80;99.90;;;;;;4871781;29;20472;-86
2023/07/13 21:58:47;;;;;;;4.30;4.10;;;17.60;99.90;;;;;;4857995;29;20454;-86
2023/07/13 22:01:26;;;;;;;4.17;3.97;;;17.60;99.90;;;;;;4878477;29;20524;-84
2023/07/13 22:03:57;;;;;;;5.50;5.10;;;17.50;99.90;;;;;;4873044;29;21216;-87
2023/07/13 22:06:30;;;;;;;4.80;4.40;;;17.40;99.90;;;;;;4878177;29;20525;-86
2023/07/13 22:08:59;;;;;;;4.57;4.47;;;17.50;99.90;;;;;;4884892;29;20460;-86
2023/07/13 22:11:25;;;;;;;3.90;3.80;;;17.60;99.90;;;;;;4881738;29;20949;-86
2023/07/13 22:13:52;;;;;;;4.57;4.27;;;17.70;99.90;;;;;;4880172;29;20532;-87
2023/07/13 22:16:21;;;;;;;4.73;4.53;;;17.70;99.90;;;;;;4879243;29;20521;-86
2023/07/13 22:18:48;;;;;;;4.80;4.70;;;17.70;99.90;;;;;;4875696;29;20437;-87
2023/07/13 22:48:21;;;;;;;4.30;4.00;;;16.90;99.90;;;;;;4873666;29;20440;-84
2023/07/13 22:50:47;;;;;;;4.50;4.40;;;16.70;99.90;;;;;;4859918;29;20438;-87
2023/07/13 23:18:18;;;;;;;5.30;5.10;;;16.50;99.90;;;;;;4806436;29;20443;-85
2023/07/13 23:20:43;;;;;;;5.60;5.40;;;16.50;99.90;;;;;;4798215;29;20479;-85
2023/07/13 23:23:15;;;;;;;4.93;4.73;;;16.50;99.90;;;;;;4797294;29;21152;-86
2023/07/13 23:25:41;;;;;;;6.10;5.67;;;16.50;99.90;;;;;;4805791;29;20211;-84
2023/07/13 23:28:07;;;;;;;5.37;5.17;;;16.60;99.90;;;;;;4839163;29;20506;-86
2023/07/13 23:30:33;;;;;;;4.87;4.67;;;16.60;99.90;;;;;;4859522;29;20242;-86
2023/07/13 23:33:03;;;;;;;5.73;5.47;;;16.60;99.90;;;;;;4853236;29;20806;-86
2023/07/13 23:35:28;;;;;;;5.50;5.30;;;16.60;99.90;;;;;;4855017;29;20201;-86
2023/07/13 23:37:54;;;;;;;5.20;5.00;;;16.60;99.90;;;;;;4852623;29;20466;-86
2023/07/13 23:40:22;;;;;;;5.07;4.97;;;16.60;99.90;;;;;;4850918;29;20186;-86
2023/07/13 23:42:49;;;;;;;5.23;5.00;;;16.60;99.90;;;;;;4855367;29;20333;-86
2023/07/13 23:45:20;;;;;;;5.17;4.77;;;16.70;99.90;;;;;;4859324;29;20505;-85
2023/07/13 23:47:50;;;;;;;6.90;5.20;;;16.70;99.90;;;;;;4854007;29;20446;-84
2023/07/13 23:50:24;;;;;;;4.80;4.70;;;16.60;99.90;;;;;;4850959;29;20427;-85
2023/07/13 23:52:51;;;;;;;5.13;4.80;;;16.50;99.90;;;;;;4857953;29;21002;-86
2023/07/13 23:55:22;;;;;;;4.83;4.53;;;16.40;99.90;;;;;;4856991;29;20427;-86
2023/07/13 23:57:49;;;;;;;6.97;6.10;;;16.60;99.90;;;;;;4855693;29;20995;-86
